Weather at Wonderboom Airport

Public forecast

Using degrees Celsius for public forecast. Weather courtesy of forecast.io.

Current aviation weather report (METAR) for Wonderboom Airport

Retrieved 2021/06/19 07:00 UTC (4 minutes ago):

FAWB 190700Z AUTO 12003KT //// // ////// 13/07 Q1035

Aviation forecast (TAF) for Wonderboom Airport

Forecast is more than 12 hours old.

Retrieved 2021/05/05 07:00 UTC (2 months ago):

TAF FAWB 050608Z 0507/0518 VRB03KT CAVOK TX24/0512Z TN15/0518Z